createdAt,value
2018-02-15T00:00:35.971Z,68.31
2018-02-15T00:03:03.393Z,69.47
2018-02-15T00:05:31.521Z,67.43
2018-02-15T00:07:58.949Z,66.83
2018-02-15T00:10:26.363Z,66.18
2018-02-15T00:12:53.777Z,65.71
2018-02-15T00:15:21.198Z,65.69
2018-02-15T00:17:48.617Z,66.68
2018-02-15T00:20:16.032Z,65.46
2018-02-15T00:22:43.457Z,65.96
2018-02-15T00:25:10.860Z,68.62
2018-02-15T00:27:38.291Z,68.12
2018-02-15T00:30:05.688Z,65.01
2018-02-15T00:32:33.103Z,64.96
2018-02-15T00:35:00.530Z,65.54
2018-02-15T00:37:27.933Z,65.92
2018-02-15T00:39:55.356Z,65.97
2018-02-15T00:42:22.759Z,66.01
2018-02-15T00:44:50.186Z,66.16
2018-02-15T00:47:17.649Z,66.73
2018-02-15T00:49:45.062Z,67.10
2018-02-15T00:52:12.468Z,66.72
2018-02-15T00:54:40.297Z,66.68
2018-02-15T00:57:07.701Z,66.58
2018-02-15T00:59:35.151Z,66.11
2018-02-15T01:02:03.561Z,67.27
2018-02-15T01:04:30.980Z,67.84
2018-02-15T01:06:58.398Z,67.83
2018-02-15T01:09:25.808Z,67.98
2018-02-15T01:11:53.837Z,68.26
2018-02-15T01:14:21.253Z,68.35
2018-02-15T01:16:48.664Z,68.32
2018-02-15T01:19:16.081Z,71.26
2018-02-15T01:21:43.493Z,69.08
2018-02-15T01:24:10.921Z,69.43
2018-02-15T01:26:38.333Z,69.94
2018-02-15T01:29:05.748Z,66.59
2018-02-15T01:31:33.161Z,66.25
2018-02-15T01:34:00.588Z,66.66
2018-02-15T01:36:28.005Z,68.17
2018-02-15T01:38:55.417Z,66.15
2018-02-15T01:41:22.836Z,65.32
2018-02-15T01:43:50.278Z,64.79
2018-02-15T01:46:17.672Z,65.91
2018-02-15T01:48:45.093Z,64.68
2018-02-15T01:51:12.513Z,66.00
2018-02-15T01:53:39.966Z,67.18
2018-02-15T01:56:07.348Z,66.42
2018-02-15T01:58:35.309Z,63.82
2018-02-15T02:01:02.728Z,65.67
2018-02-15T02:03:30.145Z,64.48
2018-02-15T02:05:57.563Z,63.09
2018-02-15T02:08:24.973Z,63.65
2018-02-15T02:10:52.379Z,63.38
2018-02-15T02:13:19.798Z,63.60
2018-02-15T02:15:47.287Z,63.25
2018-02-15T02:18:14.701Z,62.96
2018-02-15T02:20:42.122Z,63.70
2018-02-15T02:23:09.524Z,63.33
2018-02-15T02:25:36.956Z,63.67
2018-02-15T02:28:04.379Z,63.16
2018-02-15T02:30:31.809Z,63.12
2018-02-15T02:32:59.229Z,63.04
2018-02-15T02:35:26.649Z,63.31
2018-02-15T02:37:54.069Z,63.40
2018-02-15T02:40:21.476Z,63.69
2018-02-15T02:42:48.899Z,63.94
2018-02-15T02:45:16.309Z,64.55
2018-02-15T02:47:43.728Z,65.50
2018-02-15T02:50:11.133Z,66.44
2018-02-15T02:52:38.566Z,67.26
2018-02-15T02:55:05.977Z,67.89
2018-02-15T02:57:33.403Z,67.96
2018-02-15T03:00:00.813Z,68.23
2018-02-15T03:02:28.245Z,67.86
2018-02-15T03:04:55.653Z,67.67
2018-02-15T03:07:23.076Z,67.80
2018-02-15T03:09:50.500Z,67.09
2018-02-15T03:12:17.921Z,67.23
2018-02-15T03:14:45.329Z,66.97
2018-02-15T03:17:12.883Z,66.74
2018-02-15T03:19:40.292Z,66.61
2018-02-15T03:22:08.248Z,66.62
2018-02-15T03:24:35.659Z,66.47
2018-02-15T03:27:03.068Z,66.38
2018-02-15T03:29:30.479Z,65.89
2018-02-15T03:31:57.909Z,65.90
2018-02-15T03:34:25.316Z,66.38
2018-02-15T03:36:52.736Z,65.70
2018-02-15T03:39:20.136Z,65.72
2018-02-15T03:41:47.569Z,66.03
2018-02-15T03:44:14.985Z,65.88
2018-02-15T03:46:42.401Z,65.52
2018-02-15T03:49:09.823Z,65.33
2018-02-15T03:51:37.240Z,65.73
2018-02-15T03:54:04.648Z,66.10
2018-02-15T03:56:32.375Z,65.95
2018-02-15T03:58:59.808Z,66.62
2018-02-15T04:01:27.222Z,67.34
2018-02-15T04:03:54.649Z,66.41
2018-02-15T04:06:22.060Z,68.97
2018-02-15T04:08:49.474Z,66.80
2018-02-15T04:11:16.880Z,66.88
2018-02-15T04:13:44.303Z,67.12
2018-02-15T04:16:11.707Z,68.28
2018-02-15T04:18:39.117Z,67.27
2018-02-15T04:21:06.537Z,66.15
2018-02-15T04:23:33.961Z,64.91
2018-02-15T04:26:01.356Z,65.04
2018-02-15T04:28:28.776Z,64.93
2018-02-15T04:30:56.201Z,65.14
2018-02-15T04:33:23.616Z,65.98
2018-02-15T04:35:51.025Z,66.94
2018-02-15T04:38:18.445Z,67.58
2018-02-15T04:40:45.852Z,67.06
2018-02-15T04:43:13.273Z,67.21
2018-02-15T04:45:40.686Z,69.02
2018-02-15T04:48:08.109Z,72.72
2018-02-15T04:50:35.518Z,72.53
2018-02-15T04:53:02.937Z,71.42
2018-02-15T04:55:30.356Z,72.25
2018-02-15T04:57:57.839Z,72.01
2018-02-15T05:00:25.257Z,72.57
2018-02-15T05:02:52.665Z,73.52
2018-02-15T05:05:20.084Z,73.37
2018-02-15T05:07:47.516Z,74.06
2018-02-15T05:10:14.928Z,73.75
2018-02-15T05:12:43.025Z,73.03
2018-02-15T05:15:10.453Z,72.02
2018-02-15T05:17:37.868Z,72.45
2018-02-15T05:20:05.283Z,72.41
2018-02-15T05:22:32.700Z,72.83
2018-02-15T05:25:00.123Z,71.48
2018-02-15T05:27:27.537Z,70.66
2018-02-15T05:29:54.959Z,70.75
2018-02-15T05:32:22.364Z,72.85
2018-02-15T05:34:49.793Z,72.26
2018-02-15T05:37:17.193Z,69.67
2018-02-15T05:39:44.604Z,68.42
2018-02-15T05:42:12.004Z,68.39
2018-02-15T05:44:39.430Z,68.02
2018-02-15T05:47:06.840Z,67.30
2018-02-15T05:49:34.257Z,67.49
2018-02-15T05:52:01.666Z,66.37
2018-02-15T05:54:29.080Z,65.01
2018-02-15T05:56:56.500Z,66.45
2018-02-15T05:59:23.927Z,67.08
2018-02-15T06:01:51.328Z,65.92
2018-02-15T06:04:18.749Z,65.32
2018-02-15T06:06:46.164Z,64.70
2018-02-15T06:09:13.577Z,65.44
2018-02-15T06:11:40.988Z,64.64
2018-02-15T06:14:08.397Z,63.39
2018-02-15T06:16:35.812Z,61.76
2018-02-15T06:19:03.223Z,60.34
2018-02-15T06:21:30.644Z,60.05
2018-02-15T06:23:58.048Z,60.10
2018-02-15T06:26:25.452Z,60.92
2018-02-15T06:28:52.851Z,60.65
2018-02-15T06:31:20.282Z,60.94
2018-02-15T06:33:47.680Z,60.76
2018-02-15T06:36:15.107Z,60.00
2018-02-15T06:38:42.495Z,59.37
2018-02-15T06:41:09.912Z,59.05
2018-02-15T06:43:37.322Z,59.10
2018-02-15T06:46:04.730Z,60.21
2018-02-15T06:48:32.133Z,59.62
2018-02-15T06:50:59.558Z,59.26
2018-02-15T06:53:26.959Z,59.24
2018-02-15T06:55:54.368Z,60.33
2018-02-15T06:58:21.772Z,61.76
2018-02-15T07:00:49.956Z,61.58
2018-02-15T07:03:17.954Z,61.57
2018-02-15T07:05:45.380Z,61.94
2018-02-15T07:08:12.779Z,61.99
2018-02-15T07:10:40.190Z,60.78
2018-02-15T07:13:07.593Z,60.72
2018-02-15T07:15:35.004Z,61.00
2018-02-15T07:18:02.409Z,60.96
2018-02-15T07:20:29.802Z,59.70
2018-02-15T07:22:57.223Z,56.40
2018-02-15T07:25:24.618Z,57.55
2018-02-15T07:27:52.035Z,57.40
2018-02-15T07:30:19.432Z,58.48
2018-02-15T07:32:46.844Z,58.73
2018-02-15T07:35:14.237Z,59.81
2018-02-15T07:37:41.858Z,61.46
2018-02-15T07:40:09.269Z,60.25
2018-02-15T07:42:36.687Z,61.45
2018-02-15T07:45:04.084Z,61.45
2018-02-15T07:47:31.497Z,61.56
2018-02-15T07:49:58.900Z,63.04
2018-02-15T07:52:26.307Z,60.01
2018-02-15T07:54:53.717Z,61.09
2018-02-15T07:57:21.127Z,60.90
2018-02-15T07:59:48.542Z,62.36
2018-02-15T08:02:15.956Z,63.19
2018-02-15T08:04:43.369Z,64.90
2018-02-15T08:07:10.797Z,66.25
2018-02-15T08:09:38.206Z,66.93
2018-02-15T08:12:05.626Z,67.63
2018-02-15T08:14:33.037Z,69.99
2018-02-15T08:17:00.458Z,70.28
2018-02-15T08:19:27.864Z,71.33
2018-02-15T08:21:55.270Z,72.11
2018-02-15T08:24:22.693Z,73.01
2018-02-15T08:26:50.103Z,74.20
2018-02-15T08:29:17.526Z,75.58
2018-02-15T08:31:44.929Z,76.58
2018-02-15T08:34:12.350Z,77.97
2018-02-15T08:36:39.760Z,79.16
2018-02-15T08:39:07.175Z,79.44
2018-02-15T08:41:34.573Z,80.09
2018-02-15T08:44:02.008Z,80.94
2018-02-15T08:46:29.485Z,81.27
2018-02-15T08:48:56.903Z,81.07
2018-02-15T08:51:24.305Z,81.42
2018-02-15T08:53:51.722Z,81.69
2018-02-15T08:56:20.227Z,81.21
2018-02-15T08:58:47.684Z,80.80
2018-02-15T09:01:15.087Z,79.70
2018-02-15T09:03:42.516Z,79.48
2018-02-15T09:06:09.912Z,78.40
2018-02-15T09:08:37.327Z,78.65
2018-02-15T09:11:04.750Z,78.88
2018-02-15T09:13:32.151Z,78.90
2018-02-15T09:15:59.560Z,78.78
2018-02-15T09:18:26.985Z,78.01
2018-02-15T09:20:54.393Z,78.22
2018-02-15T09:23:21.802Z,78.70
2018-02-15T09:25:49.214Z,78.99
2018-02-15T09:28:16.625Z,79.42
2018-02-15T09:30:44.038Z,79.69
2018-02-15T09:33:11.456Z,79.80
2018-02-15T09:35:38.870Z,79.63
2018-02-15T09:38:06.273Z,80.17
2018-02-15T09:40:33.698Z,80.11
2018-02-15T09:43:01.100Z,80.53
2018-02-15T09:45:28.533Z,81.09
2018-02-15T09:47:55.928Z,81.95
2018-02-15T09:50:23.353Z,81.54
2018-02-15T09:52:50.753Z,81.26
2018-02-15T09:55:18.204Z,81.49
2018-02-15T09:57:45.617Z,80.79
2018-02-15T10:00:13.030Z,80.93
2018-02-15T10:02:40.437Z,81.50
2018-02-15T10:05:07.849Z,81.40
2018-02-15T10:07:35.885Z,80.65
2018-02-15T10:10:03.303Z,81.20
2018-02-15T10:12:30.700Z,81.75
2018-02-15T10:14:58.116Z,81.82
2018-02-15T10:17:25.520Z,81.85
2018-02-15T10:19:52.941Z,81.83
2018-02-15T10:22:20.349Z,82.41
2018-02-15T10:24:47.794Z,81.40
2018-02-15T10:27:15.201Z,81.36
2018-02-15T10:29:43.612Z,80.60
2018-02-15T10:32:11.026Z,80.86
2018-02-15T10:34:38.441Z,80.00
2018-02-15T10:37:05.851Z,80.43
2018-02-15T10:39:33.282Z,80.33
2018-02-15T10:42:00.684Z,79.76
2018-02-15T10:44:28.101Z,79.82
2018-02-15T10:46:56.044Z,80.24
2018-02-15T10:49:23.445Z,80.43
2018-02-15T10:51:50.856Z,79.81
2018-02-15T10:54:18.293Z,79.98
2018-02-15T10:56:45.704Z,80.22
2018-02-15T10:59:13.109Z,79.61
2018-02-15T11:01:41.542Z,79.48
2018-02-15T11:07:15.710Z,78.79
2018-02-15T11:09:43.116Z,79.66
2018-02-15T11:12:10.540Z,79.88
2018-02-15T11:14:37.947Z,80.48
2018-02-15T11:17:05.375Z,80.80
2018-02-15T11:19:32.782Z,80.80
2018-02-15T11:22:00.198Z,80.57
2018-02-15T11:24:27.615Z,80.80
2018-02-15T11:26:55.079Z,81.19
2018-02-15T11:29:22.498Z,80.63
2018-02-15T11:31:49.914Z,80.64
2018-02-15T11:34:17.341Z,80.37
2018-02-15T11:36:44.760Z,80.86
2018-02-15T11:39:12.185Z,80.24
2018-02-15T11:41:39.641Z,79.64
2018-02-15T11:44:07.045Z,79.11
2018-02-15T11:46:34.467Z,79.11
2018-02-15T11:49:01.878Z,79.15
2018-02-15T11:51:29.316Z,79.83
2018-02-15T11:53:56.741Z,79.75
2018-02-15T11:56:24.145Z,80.54
2018-02-15T11:58:51.632Z,80.61
2018-02-15T12:01:19.058Z,80.36
2018-02-15T12:03:46.512Z,80.51
2018-02-15T12:06:13.942Z,80.38
2018-02-15T12:08:41.369Z,81.09
2018-02-15T12:11:08.777Z,82.00
2018-02-15T12:13:36.227Z,82.16
2018-02-15T12:16:03.670Z,82.04
2018-02-15T12:18:31.177Z,81.79
2018-02-15T12:20:58.945Z,81.15
2018-02-15T12:23:26.392Z,80.81
2018-02-15T12:25:53.809Z,81.46
2018-02-15T12:28:21.249Z,81.83
2018-02-15T12:30:48.668Z,82.64
2018-02-15T12:33:16.084Z,82.34
2018-02-15T12:35:43.498Z,82.38
2018-02-15T12:38:10.906Z,81.64
2018-02-15T12:40:38.342Z,82.15
2018-02-15T12:43:05.773Z,81.24
2018-02-15T12:45:33.189Z,80.61
2018-02-15T12:48:00.646Z,80.57
2018-02-15T12:50:28.061Z,81.11
2018-02-15T12:52:55.464Z,80.30
2018-02-15T12:55:22.901Z,79.90
2018-02-15T12:57:50.312Z,80.26
2018-02-15T13:00:17.737Z,80.44
2018-02-15T13:02:45.172Z,81.21
2018-02-15T13:05:12.591Z,81.51
2018-02-15T13:07:40.013Z,81.27
2018-02-15T13:10:07.455Z,82.14
2018-02-15T13:12:46.757Z,82.34
2018-02-15T13:15:26.076Z,82.24
2018-02-15T13:17:53.491Z,82.50
2018-02-15T13:20:20.906Z,82.09
2018-02-15T13:22:48.439Z,81.88
2018-02-15T13:25:15.896Z,81.90
2018-02-15T13:27:55.233Z,81.75
2018-02-15T13:30:22.649Z,81.18
2018-02-15T13:32:50.069Z,81.21
2018-02-15T13:35:17.475Z,81.27
2018-02-15T13:37:44.894Z,81.12
2018-02-15T13:40:12.313Z,81.55
2018-02-15T13:42:39.736Z,81.53
2018-02-15T13:45:07.195Z,81.54
2018-02-15T13:47:34.608Z,81.99
2018-02-15T13:50:02.038Z,81.92
2018-02-15T13:52:29.460Z,81.07
2018-02-15T13:54:56.889Z,81.36
2018-02-15T13:57:24.304Z,81.66
2018-02-15T13:59:51.834Z,81.41
2018-02-15T14:02:19.251Z,80.29
2018-02-15T14:04:46.663Z,79.46
2018-02-15T14:07:14.137Z,80.21
2018-02-15T14:09:41.649Z,80.70
2018-02-15T14:12:09.072Z,80.93
2018-02-15T14:14:36.514Z,82.46
2018-02-15T14:17:03.951Z,82.17
2018-02-15T14:19:31.376Z,81.92
2018-02-15T14:21:58.823Z,81.30
2018-02-15T14:24:26.230Z,80.56
2018-02-15T14:26:53.660Z,80.94
2018-02-15T14:29:21.067Z,80.98
2018-02-15T14:31:48.495Z,79.87
2018-02-15T14:34:16.002Z,79.99
2018-02-15T14:36:43.505Z,80.07
2018-02-15T14:39:10.912Z,80.08
2018-02-15T14:41:38.366Z,80.77
2018-02-15T14:44:05.773Z,81.27
2018-02-15T14:46:33.942Z,81.90
2018-02-15T14:49:01.358Z,82.98
2018-02-15T14:51:28.778Z,82.89
2018-02-15T14:53:56.174Z,82.83
2018-02-15T14:56:23.613Z,83.06
2018-02-15T14:58:51.026Z,83.28
2018-02-15T15:01:18.433Z,83.65
2018-02-15T15:03:45.852Z,83.90
2018-02-15T15:06:13.274Z,84.07
2018-02-15T15:08:40.677Z,84.25
2018-02-15T15:11:08.120Z,84.52
2018-02-15T15:13:35.595Z,85.25
2018-02-15T15:16:03.029Z,84.98
2018-02-15T15:18:30.441Z,85.14
2018-02-15T15:20:57.861Z,85.58
2018-02-15T15:23:25.325Z,86.06
2018-02-15T15:25:52.742Z,86.40
2018-02-15T15:28:20.814Z,86.69
2018-02-15T15:30:48.256Z,86.93
2018-02-15T15:33:15.657Z,86.98
2018-02-15T15:35:43.077Z,86.51
2018-02-15T15:38:10.492Z,86.19
2018-02-15T15:40:37.942Z,86.33
2018-02-15T15:43:06.528Z,86.45
2018-02-15T15:45:33.933Z,86.37
2018-02-15T15:48:01.385Z,86.59
2018-02-15T15:50:28.793Z,86.98
2018-02-15T15:52:56.236Z,87.11
2018-02-15T15:55:23.632Z,86.69
2018-02-15T15:57:51.057Z,86.35
2018-02-15T16:00:18.490Z,86.46
2018-02-15T16:02:45.958Z,86.51
2018-02-15T16:05:13.377Z,86.71
2018-02-15T16:07:40.807Z,87.21
2018-02-15T16:10:08.241Z,87.83
2018-02-15T16:12:35.666Z,87.36
2018-02-15T16:15:03.074Z,87.18
2018-02-15T16:17:30.485Z,87.34
2018-02-15T16:19:57.892Z,87.22
2018-02-15T16:22:25.305Z,86.72
2018-02-15T16:24:52.719Z,85.87
2018-02-15T16:27:20.170Z,85.43
2018-02-15T16:29:47.592Z,85.00
2018-02-15T16:32:15.021Z,84.89
2018-02-15T16:34:42.431Z,85.66
2018-02-15T16:37:09.883Z,86.06
2018-02-15T16:39:38.028Z,86.12
2018-02-15T16:42:05.493Z,85.93
2018-02-15T16:44:32.897Z,86.10
2018-02-15T16:47:00.323Z,86.83
2018-02-15T16:49:27.735Z,87.50
2018-02-15T16:51:55.222Z,87.80
2018-02-15T16:54:22.629Z,88.12
2018-02-15T16:56:50.046Z,89.02
2018-02-15T16:59:17.534Z,89.09
2018-02-15T17:01:44.961Z,88.83
2018-02-15T17:04:14.330Z,88.95
2018-02-15T17:06:41.737Z,89.09
2018-02-15T17:09:09.168Z,89.30
2018-02-15T17:11:36.586Z,89.61
2018-02-15T17:14:04.085Z,89.57
2018-02-15T17:16:32.006Z,89.30
2018-02-15T17:18:59.421Z,89.17
2018-02-15T17:21:26.840Z,88.79
2018-02-15T17:23:54.252Z,88.51
2018-02-15T17:26:21.664Z,88.17
2018-02-15T17:28:49.083Z,88.08
2018-02-15T17:31:16.488Z,88.33
2018-02-15T17:33:43.918Z,89.03
2018-02-15T17:36:11.330Z,89.41
2018-02-15T17:38:39.773Z,90.25
2018-02-15T17:41:07.207Z,90.52
2018-02-15T17:43:34.626Z,90.27
2018-02-15T17:46:02.066Z,89.88
2018-02-15T17:48:29.491Z,89.86
2018-02-15T17:50:56.910Z,89.64
2018-02-15T17:53:24.325Z,89.65
2018-02-15T17:55:51.737Z,90.03
2018-02-15T17:58:19.145Z,90.47
2018-02-15T18:00:46.582Z,90.76
2018-02-15T18:03:14.041Z,91.11
2018-02-15T18:05:41.409Z,91.36
2018-02-15T18:08:08.822Z,91.42
2018-02-15T18:10:36.234Z,91.61
2018-02-15T18:13:03.647Z,92.04
2018-02-15T18:15:31.079Z,92.25
2018-02-15T18:17:58.512Z,92.50
2018-02-15T18:20:25.940Z,92.71
2018-02-15T18:22:53.340Z,92.82
2018-02-15T18:25:20.761Z,92.96
2018-02-15T18:27:48.164Z,92.99
2018-02-15T18:30:15.629Z,93.24
2018-02-15T18:32:43.052Z,93.38
2018-02-15T18:35:10.506Z,93.39
2018-02-15T18:37:37.950Z,93.30
2018-02-15T18:40:05.369Z,93.32
2018-02-15T18:42:32.784Z,93.22
2018-02-15T18:45:00.203Z,93.23
2018-02-15T18:47:27.676Z,93.04
2018-02-15T18:49:55.142Z,92.88
2018-02-15T18:52:22.599Z,92.97
2018-02-15T18:54:50.020Z,92.95
2018-02-15T18:57:17.424Z,93.00
2018-02-15T18:59:44.845Z,92.85
2018-02-15T19:02:12.753Z,93.19
2018-02-15T19:04:40.173Z,93.46
2018-02-15T19:07:07.582Z,93.66
2018-02-15T19:09:35.006Z,93.76
2018-02-15T19:12:02.425Z,93.71
2018-02-15T19:14:29.841Z,93.66
2018-02-15T19:16:57.254Z,93.54
2018-02-15T19:19:24.690Z,93.62
2018-02-15T19:21:52.139Z,93.72
2018-02-15T19:24:19.613Z,93.92
2018-02-15T19:26:47.045Z,94.12
2018-02-15T19:29:14.805Z,94.09
2018-02-15T19:31:42.238Z,94.12
2018-02-15T19:34:09.750Z,94.24
2018-02-15T19:36:37.202Z,94.35
2018-02-15T19:39:04.638Z,94.41
2018-02-15T19:41:32.120Z,94.36
2018-02-15T19:43:59.550Z,94.25
2018-02-15T19:46:26.969Z,94.27
2018-02-15T19:48:54.385Z,94.32
2018-02-15T19:51:21.825Z,94.19
2018-02-15T19:53:49.236Z,94.07
2018-02-15T19:56:16.665Z,93.92
2018-02-15T19:58:44.077Z,93.72
2018-02-15T20:01:11.568Z,93.43
2018-02-15T20:03:38.969Z,93.32
2018-02-15T20:06:06.389Z,93.38
2018-02-15T20:08:33.803Z,93.32
2018-02-15T20:11:01.213Z,93.50
2018-02-15T20:13:28.649Z,93.72
2018-02-15T20:15:56.060Z,93.80
2018-02-15T20:18:23.477Z,93.85
2018-02-15T20:20:50.897Z,93.88
2018-02-15T20:23:18.307Z,94.25
2018-02-15T20:28:47.066Z,94.41
2018-02-15T20:31:14.476Z,94.49
2018-02-15T20:33:41.881Z,94.72
2018-02-15T20:36:09.307Z,94.80
2018-02-15T20:38:42.274Z,94.99
2018-02-15T20:41:09.684Z,95.02
2018-02-15T20:43:37.092Z,94.95
2018-02-15T20:46:04.505Z,95.03
2018-02-15T20:48:31.942Z,94.98
2018-02-15T20:51:05.025Z,94.87
2018-02-15T20:53:38.106Z,94.74
2018-02-15T20:56:05.527Z,94.54
2018-02-15T20:58:32.924Z,94.46
2018-02-15T21:01:00.332Z,94.20
2018-02-15T21:03:27.737Z,94.19
2018-02-15T21:05:55.146Z,94.19
2018-02-15T21:08:22.554Z,94.27
2018-02-15T21:10:49.989Z,94.37
2018-02-15T21:13:17.401Z,94.27
2018-02-15T21:15:44.812Z,94.24
2018-02-15T21:18:12.212Z,94.27
2018-02-15T21:20:39.622Z,94.22
2018-02-15T21:23:07.044Z,94.16
2018-02-15T21:25:34.443Z,94.00
2018-02-15T21:28:01.861Z,94.24
2018-02-15T21:30:29.256Z,94.29
2018-02-15T21:32:56.680Z,94.30
2018-02-15T21:35:24.080Z,94.42
2018-02-15T21:37:51.492Z,94.51
2018-02-15T21:40:18.897Z,94.61
2018-02-15T21:42:46.320Z,94.66
2018-02-15T21:45:13.720Z,94.75
2018-02-15T21:47:41.140Z,94.72
2018-02-15T21:50:08.528Z,94.57
2018-02-15T21:52:35.951Z,94.37
2018-02-15T21:55:03.352Z,94.38
2018-02-15T21:57:30.770Z,94.42
2018-02-15T22:02:40.128Z,94.31
2018-02-15T22:05:07.520Z,94.09
2018-02-15T22:07:34.940Z,94.17
2018-02-15T22:10:02.347Z,94.29
2018-02-15T22:12:29.749Z,94.23
2018-02-15T22:14:57.149Z,94.16
2018-02-15T22:17:24.564Z,94.06
2018-02-15T22:19:52.803Z,93.78
2018-02-15T22:22:20.190Z,93.89
2018-02-15T22:24:47.589Z,93.91
2018-02-15T22:27:15.022Z,94.00
2018-02-15T22:29:42.428Z,94.08
2018-02-15T22:32:09.841Z,94.17
2018-02-15T22:34:37.254Z,94.25
2018-02-15T22:37:04.644Z,94.22
2018-02-15T22:39:32.065Z,94.20
2018-02-15T22:41:59.465Z,94.24
2018-02-15T22:44:26.876Z,94.30
2018-02-15T22:46:54.272Z,94.29
2018-02-15T22:49:21.684Z,94.26
2018-02-15T22:51:49.085Z,94.11
2018-02-15T22:54:16.502Z,94.22
2018-02-15T22:56:43.937Z,94.14
2018-02-15T22:59:11.317Z,94.08
2018-02-15T23:01:38.718Z,94.03
2018-02-15T23:04:06.133Z,94.04
2018-02-15T23:06:33.554Z,93.89
2018-02-15T23:09:00.971Z,93.71
2018-02-15T23:11:28.368Z,93.39
2018-02-15T23:13:55.815Z,93.36
2018-02-15T23:16:23.192Z,93.15
2018-02-15T23:18:50.605Z,92.66
2018-02-15T23:21:18.012Z,92.95
2018-02-15T23:23:45.512Z,92.98
2018-02-15T23:26:12.905Z,93.02
2018-02-15T23:28:40.325Z,93.02
2018-02-15T23:31:07.726Z,92.93
2018-02-15T23:33:35.147Z,93.15
2018-02-15T23:36:02.544Z,93.14
2018-02-15T23:38:29.952Z,93.21
2018-02-15T23:40:57.365Z,93.02
2018-02-15T23:43:25.003Z,93.13
2018-02-15T23:45:52.419Z,93.12
2018-02-15T23:48:19.826Z,93.11
2018-02-15T23:50:47.244Z,93.40
2018-02-15T23:53:14.635Z,93.56
2018-02-15T23:55:42.054Z,93.59
2018-02-15T23:58:09.452Z,93.48
